createdAt,value
2023-04-08T00:02:07.842Z,102348.41
2023-04-08T00:04:34.450Z,102341.56
2023-04-08T00:07:01.034Z,102341.34
2023-04-08T00:09:27.554Z,102342.41
2023-04-08T00:11:54.058Z,102348.22
2023-04-08T00:14:20.545Z,102345.72
2023-04-08T00:16:46.967Z,102348.66
2023-04-08T00:19:13.425Z,102349.06
2023-04-08T00:21:39.804Z,102349.06
2023-04-08T00:24:06.967Z,102344.72
2023-04-08T00:26:33.426Z,102347.59
2023-04-08T00:28:59.802Z,102351.16
2023-04-08T00:31:27.321Z,102344.09
2023-04-08T00:33:53.787Z,102343.88
2023-04-08T00:36:20.176Z,102347.41
2023-04-08T00:38:46.562Z,102356.56
2023-04-08T00:41:13.128Z,102356.56
2023-04-08T00:43:40.701Z,102355.94
2023-04-08T00:46:07.158Z,102354.47
2023-04-08T00:48:34.098Z,102359.47
2023-04-08T00:51:00.862Z,102360.53
2023-04-08T00:53:27.273Z,102362.19
2023-04-08T00:55:53.679Z,102359.91
2023-04-08T00:58:20.182Z,102363.66
2023-04-08T01:01:26.143Z,102366.97
2023-04-08T01:04:14.790Z,102370.69
2023-04-08T01:06:56.309Z,102373.81
2023-04-08T01:09:27.937Z,102372.16
2023-04-08T01:11:56.934Z,102366.56
2023-04-08T01:14:28.114Z,102375.69
2023-04-08T01:16:56.841Z,102372.38
2023-04-08T01:19:29.259Z,102378.44
2023-04-08T01:22:03.655Z,102373.63
2023-04-08T01:24:36.578Z,102380.69
2023-04-08T01:27:04.192Z,102369.91
2023-04-08T01:29:31.445Z,102369.28
2023-04-08T01:31:59.247Z,102371.38
2023-04-08T01:34:26.277Z,102375.31
2023-04-08T01:36:55.341Z,102377.38
2023-04-08T01:39:23.223Z,102372.59
2023-04-08T01:41:52.225Z,102371.38
2023-04-08T01:44:20.183Z,102373.84
2023-04-08T01:46:47.806Z,102373.03
2023-04-08T01:49:15.968Z,102378.22
2023-04-08T01:51:44.705Z,102378.22
2023-04-08T01:54:11.154Z,102379.06
2023-04-08T01:56:41.180Z,102386.53
2023-04-08T01:59:16.954Z,102384.03
2023-04-08T02:01:45.491Z,102380.69
2023-04-08T02:04:13.487Z,102384.25
2023-04-08T02:06:40.324Z,102381.97
2023-04-08T02:09:07.793Z,102384.66
2023-04-08T02:11:34.235Z,102380.31
2023-04-08T02:14:00.897Z,102377.38
2023-04-08T02:16:54.074Z,102379.25
2023-04-08T02:19:28.028Z,102381.13
2023-04-08T02:21:58.075Z,102379.25
2023-04-08T02:24:26.473Z,102383.81
2023-04-08T02:26:55.786Z,102389.44
2023-04-08T02:29:23.728Z,102387.78
2023-04-08T02:31:51.449Z,102386.94
2023-04-08T02:34:19.543Z,102379.06
2023-04-08T02:36:47.134Z,102389.84
2023-04-08T02:39:13.800Z,102383.59
2023-04-08T02:41:40.223Z,102389.41
2023-04-08T02:44:06.626Z,102396.06
2023-04-08T02:46:33.067Z,102394.59
2023-04-08T02:48:59.503Z,102397.72
2023-04-08T02:51:26.364Z,102390.03
2023-04-08T02:53:52.769Z,102396.69
2023-04-08T02:56:19.290Z,102402.28
2023-04-08T02:58:46.096Z,102410.56
2023-04-08T03:01:12.676Z,102407.06
2023-04-08T03:03:39.395Z,102413.50
2023-04-08T03:06:06.039Z,102409.75
2023-04-08T03:08:33.708Z,102404.38
2023-04-08T03:11:00.325Z,102405.41
2023-04-08T03:13:26.690Z,102411.84
2023-04-08T03:15:53.179Z,102414.72
2023-04-08T03:18:19.608Z,102414.31
2023-04-08T03:20:46.001Z,102412.66
2023-04-08T03:23:12.469Z,102418.06
2023-04-08T03:25:38.899Z,102413.88
2023-04-08T03:28:05.335Z,102410.56
2023-04-08T03:30:32.025Z,102412.00
2023-04-08T03:32:58.405Z,102405.16
2023-04-08T03:35:25.005Z,102408.50
2023-04-08T03:37:51.511Z,102412.22
2023-04-08T03:40:18.382Z,102411.59
2023-04-08T03:42:44.859Z,102411.78
2023-04-08T03:45:11.305Z,102413.84
2023-04-08T03:47:37.976Z,102412.19
2023-04-08T03:50:04.597Z,102415.09
2023-04-08T03:52:30.979Z,102408.06
2023-04-08T03:54:57.413Z,102414.25
2023-04-08T03:57:23.875Z,102411.78
2023-04-08T03:59:50.275Z,102422.97
2023-04-08T04:02:16.756Z,102427.50
2023-04-08T04:04:43.325Z,102431.47
2023-04-08T04:07:09.755Z,102436.84
2023-04-08T04:09:36.187Z,102434.56
2023-04-08T04:12:02.748Z,102440.75
2023-04-08T04:14:29.194Z,102439.09
2023-04-08T04:16:55.978Z,102441.34
2023-04-08T04:19:22.509Z,102450.63
2023-04-08T04:21:48.992Z,102449.75
2023-04-08T04:24:15.545Z,102447.47
2023-04-08T04:26:42.000Z,102456.34
2023-04-08T04:29:08.485Z,102463.16
2023-04-08T04:31:34.963Z,102463.72
2023-04-08T04:34:01.415Z,102468.03
2023-04-08T04:36:28.127Z,102464.28
2023-04-08T04:38:54.652Z,102467.78
2023-04-08T04:41:21.783Z,102472.13
2023-04-08T04:43:48.167Z,102477.09
2023-04-08T04:46:14.815Z,102476.47
2023-04-08T04:48:41.605Z,102484.75
2023-04-08T04:51:07.998Z,102484.31
2023-04-08T04:53:34.589Z,102483.88
2023-04-08T04:56:03.945Z,102489.66
2023-04-08T04:58:30.831Z,102497.09
2023-04-08T05:00:57.445Z,102501.84
2023-04-08T05:03:24.121Z,102493.75
2023-04-08T05:05:52.459Z,102498.28
2023-04-08T05:08:19.100Z,102498.03
2023-04-08T05:10:45.870Z,102498.25
2023-04-08T05:13:12.382Z,102503.19
2023-04-08T05:15:38.835Z,102506.91
2023-04-08T05:18:05.721Z,102507.50
2023-04-08T05:20:32.405Z,102516.34
2023-04-08T05:22:58.819Z,102512.38
2023-04-08T05:25:25.310Z,102519.16
2023-04-08T05:27:52.752Z,102526.59
2023-04-08T05:30:19.439Z,102526.34
2023-04-08T05:32:45.883Z,102520.69
2023-04-08T05:35:12.365Z,102522.09
2023-04-08T05:37:38.820Z,102517.09
2023-04-08T05:40:06.042Z,102522.69
2023-04-08T05:42:32.659Z,102516.84
2023-04-08T05:44:59.210Z,102530.13
2023-04-08T05:47:25.844Z,102533.63
2023-04-08T05:49:52.685Z,102526.78
2023-04-08T05:52:19.167Z,102535.03
2023-04-08T05:54:45.813Z,102535.66
2023-04-08T05:57:12.275Z,102541.03
2023-04-08T05:59:38.668Z,102535.66
2023-04-08T06:02:05.486Z,102543.34
2023-04-08T06:04:32.309Z,102540.50
2023-04-08T06:07:03.032Z,102539.00
2023-04-08T06:09:29.525Z,102535.13
2023-04-08T06:11:57.462Z,102539.25
2023-04-08T06:14:23.992Z,102539.25
2023-04-08T06:16:50.511Z,102539.09
2023-04-08T06:19:16.921Z,102542.41
2023-04-08T06:21:43.311Z,102535.16
2023-04-08T06:24:09.700Z,102545.75
2023-04-08T06:26:36.164Z,102541.19
2023-04-08T06:29:03.235Z,102554.47
2023-04-08T06:31:29.652Z,102567.53
2023-04-08T06:33:56.092Z,102572.72
2023-04-08T06:36:22.524Z,102570.00
2023-04-08T06:38:49.032Z,102579.56
2023-04-08T06:41:15.986Z,102583.53
2023-04-08T06:43:42.498Z,102593.72
2023-04-08T06:46:08.920Z,102585.44
2023-04-08T06:48:37.602Z,102589.16
2023-04-08T06:51:04.056Z,102595.00
2023-04-08T06:53:31.300Z,102592.59
2023-04-08T06:55:57.735Z,102586.81
2023-04-08T06:58:24.245Z,102597.59
2023-04-08T07:00:50.985Z,102592.63
2023-04-08T07:03:17.521Z,102591.22
2023-04-08T07:05:44.664Z,102600.19
2023-04-08T07:08:11.487Z,102603.75
2023-04-08T07:10:37.948Z,102606.47
2023-04-08T07:13:04.432Z,102612.19
2023-04-08T07:15:31.124Z,102615.78
2023-04-08T07:17:58.850Z,102611.94
2023-04-08T07:20:26.179Z,102616.72
2023-04-08T07:22:52.596Z,102617.63
2023-04-08T07:25:19.025Z,102631.78
2023-04-08T07:27:45.662Z,102629.19
2023-04-08T07:30:12.746Z,102629.84
2023-04-08T07:32:39.349Z,102638.03
2023-04-08T07:35:06.434Z,102632.69
2023-04-08T07:37:35.364Z,102639.41
2023-04-08T07:40:01.979Z,102636.56
2023-04-08T07:42:28.978Z,102637.03
2023-04-08T07:44:55.443Z,102637.13
2023-04-08T07:47:21.957Z,102631.94
2023-04-08T07:49:48.485Z,102632.84
2023-04-08T07:52:14.871Z,102636.00
2023-04-08T07:54:42.016Z,102644.72
2023-04-08T07:57:08.462Z,102637.50
2023-04-08T07:59:36.238Z,102635.66
2023-04-08T08:02:03.182Z,102635.25
2023-04-08T08:04:29.890Z,102629.25
2023-04-08T08:06:56.676Z,102644.25
2023-04-08T08:09:23.046Z,102645.72
2023-04-08T08:11:49.441Z,102651.53
2023-04-08T08:14:15.856Z,102638.22
2023-04-08T08:16:42.625Z,102634.69
2023-04-08T08:19:09.115Z,102640.91
2023-04-08T08:21:39.528Z,102637.81
2023-04-08T08:24:06.531Z,102636.31
2023-04-08T08:26:39.121Z,102636.91
2023-04-08T08:29:08.410Z,102645.81
2023-04-08T08:31:35.433Z,102646.44
2023-04-08T08:34:01.860Z,102637.63
2023-04-08T08:36:28.488Z,102643.41
2023-04-08T08:38:54.959Z,102641.69
2023-04-08T08:41:21.695Z,102650.78
2023-04-08T08:43:48.889Z,102639.88
2023-04-08T08:46:17.509Z,102647.34
2023-04-08T08:48:44.438Z,102645.81
2023-04-08T08:51:11.942Z,102645.94
2023-04-08T08:53:38.759Z,102655.25
2023-04-08T08:56:17.798Z,102655.44
2023-04-08T08:58:45.716Z,102659.13
2023-04-08T09:01:32.298Z,102655.25
2023-04-08T09:04:11.318Z,102653.31
2023-04-08T09:06:38.623Z,102657.88
2023-04-08T09:09:11.113Z,102657.00
2023-04-08T09:11:40.515Z,102660.75
2023-04-08T09:14:26.102Z,102666.69
2023-04-08T09:16:53.030Z,102664.16
2023-04-08T09:19:19.622Z,102666.13
2023-04-08T09:21:46.158Z,102671.47
2023-04-08T09:24:29.042Z,102671.78
2023-04-08T09:26:56.515Z,102664.19
2023-04-08T09:29:30.529Z,102668.91
2023-04-08T09:31:59.916Z,102668.25
2023-04-08T09:34:28.528Z,102677.44
2023-04-08T09:36:56.052Z,102677.81
2023-04-08T09:39:22.958Z,102673.59
2023-04-08T09:41:51.104Z,102679.41
2023-04-08T09:44:19.513Z,102680.13
2023-04-08T09:47:05.819Z,102669.06
2023-04-08T09:49:41.000Z,102675.00
2023-04-08T09:52:10.281Z,102678.00
2023-04-08T09:55:01.789Z,102670.91
2023-04-08T09:57:36.999Z,102674.97
2023-04-08T10:00:18.113Z,102674.50
2023-04-08T10:03:01.053Z,102674.41
2023-04-08T10:05:28.082Z,102671.25
2023-04-08T10:07:56.997Z,102661.91
2023-04-08T10:10:24.245Z,102666.44
2023-04-08T10:12:51.167Z,102661.72
2023-04-08T10:15:27.885Z,102655.81
2023-04-08T10:17:56.606Z,102662.06
2023-04-08T10:20:35.847Z,102657.13
2023-04-08T10:23:09.472Z,102658.03
2023-04-08T10:25:45.054Z,102645.13
2023-04-08T10:28:11.731Z,102644.19
2023-04-08T10:30:38.057Z,102652.56
2023-04-08T10:33:12.344Z,102645.97
2023-04-08T10:35:48.591Z,102659.66
2023-04-08T10:38:16.732Z,102658.72
2023-04-08T10:40:44.637Z,102659.91
2023-04-08T10:43:12.740Z,102656.13
2023-04-08T10:45:40.649Z,102660.16
2023-04-08T10:48:24.874Z,102645.38
2023-04-08T10:51:04.804Z,102652.47
2023-04-08T10:53:35.418Z,102653.28
2023-04-08T10:56:16.220Z,102653.16
2023-04-08T10:58:54.209Z,102644.75
2023-04-08T11:01:20.700Z,102644.97
2023-04-08T11:03:47.690Z,102653.59
2023-04-08T11:06:14.737Z,102637.94
2023-04-08T11:08:41.599Z,102637.56
2023-04-08T11:11:11.892Z,102644.53
2023-04-08T11:13:52.188Z,102638.22
2023-04-08T11:16:21.131Z,102637.22
2023-04-08T11:18:47.930Z,102640.03
2023-04-08T11:21:15.463Z,102641.84
2023-04-08T11:23:42.865Z,102644.97
2023-04-08T11:26:10.775Z,102637.34
2023-04-08T11:28:37.633Z,102639.94
2023-04-08T11:31:04.367Z,102629.44
2023-04-08T11:33:31.925Z,102636.53
2023-04-08T11:36:02.194Z,102634.78
2023-04-08T11:38:29.299Z,102639.84
2023-04-08T11:40:58.732Z,102642.94
2023-04-08T11:43:26.231Z,102644.00
2023-04-08T11:45:52.816Z,102645.19
2023-04-08T11:48:19.379Z,102640.31
2023-04-08T11:50:45.746Z,102642.47
2023-04-08T11:53:25.078Z,102645.88
2023-04-08T11:55:52.031Z,102637.53
2023-04-08T11:58:18.582Z,102639.88
2023-04-08T12:00:45.725Z,102639.38
2023-04-08T12:03:13.515Z,102642.75
2023-04-08T12:05:40.694Z,102641.78
2023-04-08T12:08:07.191Z,102640.03
2023-04-08T12:10:33.652Z,102636.34
2023-04-08T12:13:00.327Z,102634.50
2023-04-08T12:15:26.735Z,102639.66
2023-04-08T12:17:53.243Z,102633.53
2023-04-08T12:20:19.794Z,102635.94
2023-04-08T12:22:46.908Z,102641.88
2023-04-08T12:25:13.252Z,102637.69
2023-04-08T12:27:39.631Z,102639.34
2023-04-08T12:30:06.555Z,102643.44
2023-04-08T12:32:33.640Z,102639.72
2023-04-08T12:35:00.418Z,102636.56
2023-04-08T12:37:27.366Z,102632.19
2023-04-08T12:39:53.709Z,102634.09
2023-04-08T12:42:20.120Z,102636.25
2023-04-08T12:44:46.654Z,102635.75
2023-04-08T12:47:13.095Z,102635.06
2023-04-08T12:52:09.008Z,102634.16
2023-04-08T12:54:35.501Z,102631.69
2023-04-08T12:57:02.804Z,102628.97
2023-04-08T12:59:29.183Z,102634.44
2023-04-08T13:01:56.069Z,102628.97
2023-04-08T13:04:22.559Z,102635.00
2023-04-08T13:06:49.012Z,102636.59
2023-04-08T13:09:15.506Z,102641.69
2023-04-08T13:11:41.973Z,102636.66
2023-04-08T13:14:08.367Z,102636.91
2023-04-08T13:16:34.773Z,102638.22
2023-04-08T13:19:01.193Z,102643.56
2023-04-08T13:21:28.057Z,102632.09
2023-04-08T13:23:54.450Z,102636.66
2023-04-08T13:26:21.426Z,102639.47
2023-04-08T13:28:56.749Z,102637.31
2023-04-08T13:31:24.055Z,102634.69
2023-04-08T13:33:50.569Z,102636.34
2023-04-08T13:36:17.008Z,102627.19
2023-04-08T13:38:43.677Z,102619.00
2023-04-08T13:41:10.135Z,102621.22
2023-04-08T13:43:36.777Z,102625.28
2023-04-08T13:46:03.317Z,102627.19
2023-04-08T13:48:29.787Z,102628.84
2023-04-08T13:50:56.147Z,102622.22
2023-04-08T13:53:22.651Z,102619.19
2023-04-08T13:55:54.856Z,102615.03
2023-04-08T13:58:24.120Z,102623.19
2023-04-08T14:00:51.872Z,102622.63
2023-04-08T14:03:18.873Z,102618.16
2023-04-08T14:05:45.895Z,102617.25
2023-04-08T14:08:13.502Z,102610.47
2023-04-08T14:10:41.814Z,102610.47
2023-04-08T14:13:08.552Z,102610.63
2023-04-08T14:15:35.028Z,102614.66
2023-04-08T14:18:01.729Z,102613.09
2023-04-08T14:20:28.343Z,102600.97
2023-04-08T14:22:56.851Z,102609.75
2023-04-08T14:25:23.760Z,102607.59
2023-04-08T14:27:57.962Z,102602.56
2023-04-08T14:30:26.922Z,102600.50
2023-04-08T14:32:53.794Z,102598.84
2023-04-08T14:35:20.255Z,102599.81
2023-04-08T14:37:46.965Z,102603.13
2023-04-08T14:40:13.536Z,102603.31
2023-04-08T14:42:39.929Z,102599.66
2023-04-08T14:45:07.030Z,102593.03
2023-04-08T14:47:33.477Z,102602.78
2023-04-08T14:49:59.883Z,102607.06
2023-04-08T14:52:26.498Z,102597.69
2023-04-08T14:54:53.763Z,102600.41
2023-04-08T14:57:20.395Z,102593.22
2023-04-08T14:59:46.811Z,102594.50
2023-04-08T15:02:13.315Z,102580.31
2023-04-08T15:04:39.860Z,102597.38
2023-04-08T15:07:06.437Z,102591.22
2023-04-08T15:09:33.030Z,102587.75
2023-04-08T15:11:59.977Z,102587.25
2023-04-08T15:14:26.554Z,102580.06
2023-04-08T15:16:52.942Z,102578.16
2023-04-08T15:19:22.428Z,102582.53
2023-04-08T15:21:48.775Z,102584.78
2023-04-08T15:24:15.297Z,102582.31
2023-04-08T15:26:41.771Z,102580.16
2023-04-08T15:29:08.159Z,102578.63
2023-04-08T15:31:35.344Z,102587.19
2023-04-08T15:34:02.836Z,102580.56
2023-04-08T15:36:32.598Z,102582.06
2023-04-08T15:38:59.181Z,102589.66
2023-04-08T15:41:26.218Z,102595.13
2023-04-08T15:43:53.088Z,102586.34
2023-04-08T15:46:21.307Z,102585.50
2023-04-08T15:48:48.460Z,102581.41
2023-04-08T15:51:15.404Z,102585.09
2023-04-08T15:53:42.402Z,102586.28
2023-04-08T15:56:16.387Z,102582.16
2023-04-08T15:58:43.850Z,102584.06
2023-04-08T16:01:10.593Z,102591.41
2023-04-08T16:03:37.308Z,102590.81
2023-04-08T16:06:05.661Z,102589.56
2023-04-08T16:08:33.527Z,102585.50
2023-04-08T16:11:02.371Z,102589.06
2023-04-08T16:13:30.025Z,102586.25
2023-04-08T16:15:58.219Z,102580.09
2023-04-08T16:18:25.849Z,102591.16
2023-04-08T16:20:52.681Z,102593.16
2023-04-08T16:23:19.153Z,102583.00
2023-04-08T16:25:45.961Z,102592.69
2023-04-08T16:28:12.469Z,102583.94
2023-04-08T16:30:39.064Z,102578.03
2023-04-08T16:33:06.114Z,102583.00
2023-04-08T16:35:32.658Z,102588.78
2023-04-08T16:37:59.481Z,102582.13
2023-04-08T16:40:26.243Z,102577.28
2023-04-08T16:42:52.775Z,102581.66
2023-04-08T16:45:19.424Z,102585.69
2023-04-08T16:47:46.131Z,102582.63
2023-04-08T16:50:12.669Z,102585.00
2023-04-08T16:52:39.176Z,102583.00
2023-04-08T16:55:05.980Z,102586.19
2023-04-08T16:57:32.398Z,102592.69
2023-04-08T16:59:58.794Z,102591.88
2023-04-08T17:02:25.959Z,102592.69
2023-04-08T17:04:52.424Z,102588.91
2023-04-08T17:07:18.818Z,102590.34
2023-04-08T17:09:49.481Z,102589.59
2023-04-08T17:12:16.280Z,102587.00
2023-04-08T17:14:42.705Z,102599.53
2023-04-08T17:17:09.095Z,102595.16
2023-04-08T17:19:35.472Z,102598.94
2023-04-08T17:22:02.306Z,102599.44
2023-04-08T17:24:28.694Z,102597.19
2023-04-08T17:26:56.998Z,102597.66
2023-04-08T17:29:23.549Z,102600.28
2023-04-08T17:31:50.217Z,102595.31
2023-04-08T17:34:16.715Z,102602.88
2023-04-08T17:36:44.583Z,102599.81
2023-04-08T17:39:11.040Z,102597.31
2023-04-08T17:41:41.023Z,102599.47
2023-04-08T17:44:08.190Z,102598.88
2023-04-08T17:46:34.654Z,102597.69
2023-04-08T17:49:01.037Z,102593.56
2023-04-08T17:51:27.934Z,102606.81
2023-04-08T17:53:54.289Z,102599.13
2023-04-08T17:56:21.108Z,102598.44
2023-04-08T17:58:48.240Z,102605.88
2023-04-08T18:01:15.328Z,102598.66
2023-04-08T18:03:42.242Z,102605.00
2023-04-08T18:06:09.057Z,102600.03
2023-04-08T18:08:35.744Z,102606.41
2023-04-08T18:11:05.894Z,102608.75
2023-04-08T18:13:32.648Z,102608.41
2023-04-08T18:15:59.120Z,102613.25
2023-04-08T18:18:25.608Z,102607.44
2023-04-08T18:20:52.001Z,102610.88
2023-04-08T18:23:18.409Z,102611.34
2023-04-08T18:25:48.536Z,102614.53
2023-04-08T18:28:14.986Z,102611.69
2023-04-08T18:30:43.154Z,102619.22
2023-04-08T18:33:09.640Z,102616.97
2023-04-08T18:35:37.141Z,102617.44
2023-04-08T18:38:03.637Z,102609.53
2023-04-08T18:40:31.295Z,102624.19
2023-04-08T18:43:02.063Z,102622.53
2023-04-08T18:45:29.416Z,102630.88
2023-04-08T18:47:56.080Z,102628.41
2023-04-08T18:50:23.132Z,102627.56
2023-04-08T18:52:49.680Z,102635.72
2023-04-08T18:55:16.291Z,102642.22
2023-04-08T18:57:42.720Z,102633.47
2023-04-08T19:00:09.508Z,102637.25
2023-04-08T19:02:36.065Z,102636.66
2023-04-08T19:05:02.578Z,102637.69
2023-04-08T19:07:29.151Z,102646.91
2023-04-08T19:09:57.626Z,102648.22
2023-04-08T19:12:24.246Z,102644.06
2023-04-08T19:14:50.874Z,102646.16
2023-04-08T19:17:17.247Z,102643.69
2023-04-08T19:19:43.774Z,102655.03
2023-04-08T19:22:10.510Z,102656.28
2023-04-08T19:24:37.623Z,102658.66
2023-04-08T19:27:04.203Z,102657.22
2023-04-08T19:29:32.847Z,102652.72
2023-04-08T19:31:59.468Z,102655.28
2023-04-08T19:34:26.507Z,102654.88
2023-04-08T19:37:01.977Z,102666.91
2023-04-08T19:39:42.326Z,102664.25
2023-04-08T19:42:09.323Z,102661.63
2023-04-08T19:44:41.974Z,102660.00
2023-04-08T19:47:14.340Z,102662.56
2023-04-08T19:49:40.704Z,102668.69
2023-04-08T19:52:17.508Z,102667.03
2023-04-08T19:54:44.059Z,102672.53
2023-04-08T19:57:11.545Z,102673.41
2023-04-08T19:59:38.156Z,102675.09
2023-04-08T20:02:04.743Z,102673.88
2023-04-08T20:04:31.600Z,102678.09
2023-04-08T20:06:58.041Z,102681.25
2023-04-08T20:09:24.625Z,102685.44
2023-04-08T20:11:51.083Z,102683.41
2023-04-08T20:14:17.613Z,102687.38
2023-04-08T20:16:43.987Z,102679.94
2023-04-08T20:19:10.565Z,102695.81
2023-04-08T20:21:37.795Z,102692.94
2023-04-08T20:24:04.346Z,102693.81
2023-04-08T20:26:30.822Z,102691.13
2023-04-08T20:29:06.706Z,102688.47
2023-04-08T20:31:33.229Z,102696.81
2023-04-08T20:34:03.732Z,102702.28
2023-04-08T20:36:34.434Z,102711.91
2023-04-08T20:39:10.825Z,102703.59
2023-04-08T20:41:37.776Z,102709.03
2023-04-08T20:44:06.786Z,102709.47
2023-04-08T20:46:33.378Z,102703.88
2023-04-08T20:48:59.872Z,102705.78
2023-04-08T20:51:27.286Z,102709.13
2023-04-08T20:53:53.881Z,102711.03
2023-04-08T20:56:21.075Z,102712.94
2023-04-08T20:58:47.568Z,102709.22
2023-04-08T21:01:14.112Z,102712.56
2023-04-08T21:03:40.661Z,102706.94
2023-04-08T21:06:07.207Z,102703.84
2023-04-08T21:08:33.725Z,102708.03
2023-04-08T21:11:00.181Z,102707.63
2023-04-08T21:13:26.595Z,102716.59
2023-04-08T21:15:53.057Z,102711.81
2023-04-08T21:18:19.486Z,102714.75
2023-04-08T21:20:45.895Z,102717.25
2023-04-08T21:23:13.030Z,102719.31
2023-04-08T21:25:39.599Z,102714.34
2023-04-08T21:28:06.085Z,102712.06
2023-04-08T21:30:32.478Z,102715.19
2023-04-08T21:32:58.973Z,102718.94
2023-04-08T21:35:25.532Z,102713.09
2023-04-08T21:37:52.046Z,102712.69
2023-04-08T21:40:21.743Z,102709.78
2023-04-08T21:42:48.289Z,102708.75
2023-04-08T21:45:15.949Z,102712.91
2023-04-08T21:47:42.458Z,102711.44
2023-04-08T21:50:09.453Z,102712.66
2023-04-08T21:52:36.956Z,102703.94
2023-04-08T21:55:04.591Z,102707.69
2023-04-08T21:57:31.320Z,102707.69
2023-04-08T22:00:07.757Z,102709.56
2023-04-08T22:02:40.689Z,102706.00
2023-04-08T22:05:08.756Z,102707.25
2023-04-08T22:07:35.194Z,102713.28
2023-04-08T22:10:02.075Z,102710.19
2023-04-08T22:12:30.461Z,102718.94
2023-04-08T22:14:57.278Z,102713.09
2023-04-08T22:17:23.734Z,102712.69
2023-04-08T22:19:50.324Z,102717.69
2023-04-08T22:22:16.738Z,102716.41
2023-04-08T22:24:43.215Z,102716.84
2023-04-08T22:27:09.782Z,102716.41
2023-04-08T22:29:36.292Z,102718.47
2023-04-08T22:32:02.875Z,102723.47
2023-04-08T22:34:29.274Z,102716.19
2023-04-08T22:36:55.651Z,102723.06
2023-04-08T22:39:22.175Z,102716.41
2023-04-08T22:41:48.579Z,102718.69
2023-04-08T22:44:14.917Z,102717.84
2023-04-08T22:46:41.475Z,102719.06
2023-04-08T22:49:07.855Z,102713.22
2023-04-08T22:51:34.366Z,102721.31
2023-04-08T22:54:01.163Z,102715.50
2023-04-08T22:56:28.703Z,102717.56
2023-04-08T22:58:55.106Z,102720.91
2023-04-08T23:01:22.122Z,102716.09
2023-04-08T23:03:49.165Z,102718.38
2023-04-08T23:06:16.657Z,102717.53
2023-04-08T23:08:43.180Z,102711.09
2023-04-08T23:11:09.710Z,102706.72
2023-04-08T23:13:36.183Z,102722.34
2023-04-08T23:16:02.818Z,102716.72
2023-04-08T23:18:29.244Z,102716.50
2023-04-08T23:20:56.852Z,102710.88
2023-04-08T23:23:24.540Z,102712.13
2023-04-08T23:25:52.070Z,102713.38
2023-04-08T23:28:19.370Z,102714.41
2023-04-08T23:30:45.725Z,102713.59
2023-04-08T23:33:12.172Z,102709.63
2023-04-08T23:35:39.794Z,102707.13
2023-04-08T23:38:06.347Z,102707.94
2023-04-08T23:40:32.838Z,102707.75
2023-04-08T23:42:59.296Z,102707.94
2023-04-08T23:45:25.792Z,102710.66
2023-04-08T23:47:52.241Z,102705.25
2023-04-08T23:50:20.243Z,102698.59
2023-04-08T23:52:46.689Z,102704.00
2023-04-08T23:55:13.226Z,102704.81
2023-04-08T23:57:42.528Z,102697.13
